createdAt,value
2019-05-03T00:00:19.532Z,13.43
2019-05-03T00:02:53.867Z,13.33
2019-05-03T00:05:34.115Z,13.97
2019-05-03T00:08:02.175Z,12.60
2019-05-03T00:10:26.007Z,12.63
2019-05-03T00:12:49.562Z,12.20
2019-05-03T00:15:14.893Z,12.97
2019-05-03T00:17:38.320Z,12.80
2019-05-03T00:20:02.306Z,13.63
2019-05-03T00:22:25.934Z,12.90
2019-05-03T00:25:01.947Z,12.90
2019-05-03T00:27:14.519Z,13.07
2019-05-03T00:29:38.310Z,12.77
2019-05-03T00:32:02.083Z,13.53
2019-05-03T00:34:46.273Z,13.07
2019-05-03T00:37:12.521Z,13.53
2019-05-03T00:39:37.637Z,12.50
2019-05-03T00:42:02.724Z,13.27
2019-05-03T00:44:26.369Z,12.97
2019-05-03T00:46:51.808Z,12.97
2019-05-03T00:49:14.988Z,11.67
2019-05-03T00:51:38.444Z,11.67
2019-05-03T00:54:02.128Z,11.33
2019-05-03T00:56:25.674Z,10.40
2019-05-03T00:58:53.258Z,9.50
2019-05-03T01:01:17.474Z,9.90
2019-05-03T01:03:41.855Z,10.17
2019-05-03T01:06:05.649Z,10.13
2019-05-03T01:08:29.083Z,9.70
2019-05-03T01:10:52.538Z,9.80
2019-05-03T01:13:16.012Z,9.73
2019-05-03T01:15:46.985Z,10.20
2019-05-03T01:18:12.361Z,9.20
2019-05-03T01:20:35.824Z,9.47
2019-05-03T01:22:59.292Z,9.30
2019-05-03T01:25:30.127Z,9.17
2019-05-03T01:27:47.903Z,9.30
2019-05-03T01:30:11.905Z,9.17
2019-05-03T01:32:35.400Z,9.20
2019-05-03T01:34:58.871Z,9.77
2019-05-03T01:37:22.747Z,8.27
2019-05-03T01:39:46.229Z,8.60
2019-05-03T01:42:09.676Z,7.70
2019-05-03T01:44:33.130Z,8.73
2019-05-03T01:46:58.231Z,7.73
2019-05-03T01:49:26.550Z,7.77
2019-05-03T01:51:52.631Z,7.80
2019-05-03T01:54:16.163Z,7.40
2019-05-03T01:56:39.632Z,7.50
2019-05-03T01:59:03.060Z,7.50
2019-05-03T02:01:33.965Z,7.63
2019-05-03T02:04:14.272Z,7.93
2019-05-03T02:06:38.033Z,7.73
2019-05-03T02:09:01.686Z,7.43
2019-05-03T02:11:25.095Z,7.63
2019-05-03T02:13:48.953Z,7.77
2019-05-03T02:16:12.702Z,7.33
2019-05-03T02:18:36.143Z,7.50
2019-05-03T02:21:01.572Z,7.73
2019-05-03T02:23:24.811Z,7.50
2019-05-03T02:25:55.973Z,7.53
2019-05-03T02:28:13.411Z,7.43
2019-05-03T02:30:36.881Z,8.83
2019-05-03T02:33:00.359Z,13.80
2019-05-03T02:35:23.897Z,7.57
2019-05-03T02:37:53.167Z,7.03
2019-05-03T02:40:20.449Z,7.07
2019-05-03T02:42:46.370Z,22.87
2019-05-03T02:45:11.268Z,7.73
2019-05-03T02:47:36.379Z,7.80
2019-05-03T02:50:01.529Z,7.00
2019-05-03T02:52:36.753Z,9.87
2019-05-03T02:54:59.583Z,11.00
2019-05-03T02:57:25.705Z,12.73
2019-05-03T02:59:49.875Z,12.97
2019-05-03T03:02:15.165Z,10.33
2019-05-03T03:04:39.136Z,9.13
2019-05-03T03:07:05.694Z,7.47
2019-05-03T03:09:29.635Z,7.30
2019-05-03T03:11:55.921Z,7.43
2019-05-03T03:14:22.103Z,7.83
2019-05-03T03:16:48.576Z,7.37
2019-05-03T03:19:15.882Z,6.93
2019-05-03T03:21:46.692Z,7.40
2019-05-03T03:24:16.817Z,8.13
2019-05-03T03:26:43.076Z,7.60
2019-05-03T03:29:09.505Z,7.80
2019-05-03T03:31:37.879Z,8.17
2019-05-03T03:34:08.133Z,7.50
2019-05-03T03:36:46.048Z,7.33
2019-05-03T03:38:55.539Z,7.47
2019-05-03T03:41:21.038Z,8.67
2019-05-03T03:43:46.427Z,8.80
2019-05-03T03:46:10.300Z,8.70
2019-05-03T03:48:36.796Z,8.20
2019-05-03T03:51:01.284Z,8.67
2019-05-03T03:53:26.585Z,7.70
2019-05-03T03:55:52.308Z,8.17
2019-05-03T03:58:22.999Z,7.90
2019-05-03T04:00:46.162Z,8.37
2019-05-03T04:03:08.913Z,8.17
2019-05-03T04:05:32.505Z,8.20
2019-05-03T04:07:56.301Z,8.17
2019-05-03T04:10:19.990Z,8.63
2019-05-03T04:12:45.544Z,8.97
2019-05-03T04:15:17.096Z,8.50
2019-05-03T04:17:58.514Z,9.17
2019-05-03T04:20:25.697Z,8.03
2019-05-03T04:22:48.724Z,7.77
2019-05-03T04:25:12.148Z,7.33
2019-05-03T04:27:36.481Z,7.10
2019-05-03T04:30:00.497Z,6.03
2019-05-03T04:32:28.459Z,5.90
2019-05-03T04:34:49.464Z,5.70
2019-05-03T04:37:15.908Z,5.60
2019-05-03T04:39:38.079Z,4.20
2019-05-03T04:42:01.554Z,4.43
2019-05-03T04:44:26.023Z,4.53
2019-05-03T04:46:49.605Z,3.50
2019-05-03T04:49:15.162Z,3.50
2019-05-03T04:51:38.234Z,3.23
2019-05-03T04:54:19.186Z,2.90
2019-05-03T04:56:42.603Z,3.30
2019-05-03T04:59:06.075Z,2.93
2019-05-03T05:01:29.516Z,2.90
2019-05-03T05:03:52.962Z,2.77
2019-05-03T05:06:16.426Z,2.97
2019-05-03T05:08:39.862Z,3.33
2019-05-03T05:11:05.792Z,3.20
2019-05-03T05:13:28.542Z,2.90
2019-05-03T05:15:52.009Z,3.40
2019-05-03T05:18:20.063Z,3.20
2019-05-03T05:20:45.466Z,3.40
2019-05-03T05:23:08.937Z,2.47
2019-05-03T05:25:35.468Z,2.87
2019-05-03T05:28:09.599Z,3.00
2019-05-03T05:30:35.180Z,3.17
2019-05-03T05:32:58.242Z,4.00
2019-05-03T05:35:21.692Z,4.60
2019-05-03T05:37:45.193Z,3.57
2019-05-03T05:40:08.702Z,3.97
2019-05-03T05:42:32.151Z,4.70
2019-05-03T05:44:55.768Z,3.90
2019-05-03T05:47:20.841Z,3.60
2019-05-03T05:50:01.196Z,4.03
2019-05-03T05:52:24.705Z,4.47
2019-05-03T05:54:59.108Z,4.27
2019-05-03T05:57:25.672Z,4.10
2019-05-03T05:59:56.306Z,4.30
2019-05-03T06:02:20.308Z,4.20
2019-05-03T06:04:45.217Z,4.17
2019-05-03T06:07:16.193Z,3.90
2019-05-03T06:09:41.257Z,4.60
2019-05-03T06:12:08.884Z,4.10
2019-05-03T06:14:34.709Z,5.13
2019-05-03T06:17:00.171Z,4.37
2019-05-03T06:19:25.379Z,4.80
2019-05-03T06:22:02.781Z,4.30
2019-05-03T06:24:28.175Z,4.67
2019-05-03T06:27:09.621Z,5.30
2019-05-03T06:29:35.079Z,5.03
2019-05-03T06:32:00.273Z,4.47
2019-05-03T06:34:25.197Z,5.13
2019-05-03T06:36:51.447Z,4.90
2019-05-03T06:39:15.549Z,5.00
2019-05-03T06:41:39.055Z,5.43
2019-05-03T06:44:04.259Z,5.07
2019-05-03T06:46:45.556Z,5.10
2019-05-03T06:49:10.096Z,3.43
2019-05-03T06:51:35.018Z,4.03
2019-05-03T06:53:58.528Z,4.00
2019-05-03T06:56:24.986Z,3.80
2019-05-03T06:58:47.179Z,4.50
2019-05-03T07:01:14.986Z,4.17
2019-05-03T07:03:45.582Z,3.77
2019-05-03T07:06:16.619Z,4.60
2019-05-03T07:08:47.379Z,4.47
2019-05-03T07:11:10.878Z,4.40
2019-05-03T07:13:34.676Z,3.90
2019-05-03T07:15:58.118Z,4.20
2019-05-03T07:18:21.542Z,4.27
2019-05-03T07:20:46.633Z,3.80
2019-05-03T07:23:10.080Z,3.83
2019-05-03T07:25:34.446Z,3.20
2019-05-03T07:27:57.943Z,3.60
2019-05-03T07:30:21.400Z,3.67
2019-05-03T07:32:46.462Z,3.17
2019-05-03T07:35:10.162Z,3.23
2019-05-03T07:37:34.882Z,3.43
2019-05-03T07:39:58.404Z,3.43
2019-05-03T07:42:22.135Z,3.70
2019-05-03T07:44:45.559Z,3.60
2019-05-03T07:47:09.036Z,3.83
2019-05-03T07:49:32.728Z,3.60
2019-05-03T07:51:56.151Z,3.40
2019-05-03T07:54:19.618Z,3.40
2019-05-03T07:56:47.401Z,3.67
2019-05-03T07:59:10.825Z,3.10
2019-05-03T08:01:36.015Z,3.73
2019-05-03T08:03:59.756Z,4.00
2019-05-03T08:06:24.730Z,3.70
2019-05-03T08:08:48.312Z,4.00
2019-05-03T08:11:11.780Z,4.10
2019-05-03T08:13:35.692Z,3.70
2019-05-03T08:15:59.173Z,3.30
2019-05-03T08:18:25.427Z,3.27
2019-05-03T08:20:48.128Z,3.33
2019-05-03T08:23:24.432Z,2.80
2019-05-03T08:25:37.172Z,3.37
2019-05-03T08:28:00.638Z,3.67
2019-05-03T08:30:31.570Z,3.23
2019-05-03T08:33:08.193Z,3.47
2019-05-03T08:35:35.432Z,3.07
2019-05-03T08:37:59.608Z,2.90
2019-05-03T08:40:25.070Z,2.70
2019-05-03T08:42:48.522Z,2.73
2019-05-03T08:45:12.314Z,2.90
2019-05-03T08:47:35.788Z,2.70
2019-05-03T08:49:59.225Z,2.80
2019-05-03T08:52:24.713Z,2.47
2019-05-03T08:54:47.829Z,3.10
2019-05-03T08:57:11.262Z,2.90
2019-05-03T08:59:35.702Z,2.70
2019-05-03T09:02:03.667Z,3.20
2019-05-03T09:04:36.128Z,3.00
2019-05-03T09:06:49.692Z,2.80
2019-05-03T09:09:25.419Z,3.17
2019-05-03T09:11:48.537Z,3.20
2019-05-03T09:14:16.368Z,2.80
2019-05-03T09:16:39.800Z,2.77
2019-05-03T09:19:05.382Z,2.50
2019-05-03T09:21:28.388Z,2.77
2019-05-03T09:23:51.847Z,2.80
2019-05-03T09:26:15.426Z,2.87
2019-05-03T09:28:38.806Z,2.70
2019-05-03T09:31:04.528Z,2.63
2019-05-03T09:33:27.406Z,2.30
2019-05-03T09:35:50.865Z,2.57
2019-05-03T09:38:15.038Z,2.40
2019-05-03T09:40:38.552Z,2.20
2019-05-03T09:43:01.956Z,2.63
2019-05-03T09:45:25.402Z,2.50
2019-05-03T09:47:48.827Z,2.70
2019-05-03T09:50:12.342Z,3.20
2019-05-03T09:52:35.764Z,3.00
2019-05-03T09:55:01.152Z,2.53
2019-05-03T09:57:24.841Z,2.77
2019-05-03T09:59:57.067Z,2.73
2019-05-03T10:02:15.165Z,3.07
2019-05-03T10:04:39.050Z,3.10
2019-05-03T10:07:02.520Z,4.53
2019-05-03T10:09:26.449Z,3.13
2019-05-03T10:11:49.922Z,2.70
2019-05-03T10:14:15.450Z,2.70
2019-05-03T10:16:40.171Z,2.33
2019-05-03T10:19:03.634Z,2.87
2019-05-03T10:21:28.705Z,2.80
2019-05-03T10:23:54.835Z,2.30
2019-05-03T10:26:18.218Z,2.53
2019-05-03T10:28:41.681Z,2.40
2019-05-03T10:31:07.653Z,3.17
2019-05-03T10:33:35.719Z,2.70
2019-05-03T10:36:20.165Z,2.67
2019-05-03T10:38:55.556Z,2.60
2019-05-03T10:41:27.541Z,3.10
2019-05-03T10:43:55.681Z,2.70
2019-05-03T10:46:26.367Z,3.00
2019-05-03T10:49:00.613Z,2.90
2019-05-03T10:51:37.159Z,2.77
2019-05-03T10:54:08.433Z,2.60
2019-05-03T10:56:35.775Z,2.73
2019-05-03T10:59:03.505Z,3.30
2019-05-03T11:01:35.881Z,2.90
2019-05-03T11:03:59.182Z,3.13
2019-05-03T11:06:22.654Z,3.63
2019-05-03T11:08:46.074Z,3.13
2019-05-03T11:11:09.601Z,3.00
2019-05-03T11:13:34.859Z,3.10
2019-05-03T11:15:58.211Z,3.03
2019-05-03T11:18:21.639Z,4.93
2019-05-03T11:20:45.371Z,12.07
2019-05-03T11:23:08.901Z,3.93
2019-05-03T11:25:34.338Z,3.27
2019-05-03T11:27:58.313Z,2.80
2019-05-03T11:30:21.779Z,3.10
2019-05-03T11:32:47.236Z,5.23
2019-05-03T11:35:12.396Z,5.93
2019-05-03T11:37:40.444Z,4.40
2019-05-03T11:40:05.356Z,3.13
2019-05-03T11:42:28.812Z,3.57
2019-05-03T11:44:52.242Z,5.43
2019-05-03T11:47:15.686Z,3.70
2019-05-03T11:49:39.398Z,4.03
2019-05-03T11:52:02.896Z,3.27
2019-05-03T11:54:26.465Z,3.03
2019-05-03T11:56:50.264Z,3.20
2019-05-03T11:59:14.796Z,3.07
2019-05-03T12:01:40.349Z,3.37
2019-05-03T12:04:04.952Z,3.00
2019-05-03T12:06:28.593Z,3.03
2019-05-03T12:08:52.030Z,3.30
2019-05-03T12:11:15.542Z,3.37
2019-05-03T12:13:39.040Z,3.50
2019-05-03T12:16:14.410Z,3.37
2019-05-03T12:18:28.374Z,3.07
2019-05-03T12:20:52.752Z,2.93
2019-05-03T12:23:18.149Z,2.90
2019-05-03T12:25:43.135Z,2.90
2019-05-03T12:28:07.359Z,3.10
2019-05-03T12:30:30.789Z,3.73
2019-05-03T12:32:54.722Z,3.03
2019-05-03T12:35:18.354Z,3.03
2019-05-03T12:37:41.798Z,3.43
2019-05-03T12:40:09.813Z,3.10
2019-05-03T12:42:35.455Z,2.90
2019-05-03T12:44:58.437Z,3.10
2019-05-03T12:47:22.328Z,3.07
2019-05-03T12:49:45.863Z,2.90
2019-05-03T12:52:10.801Z,2.80
2019-05-03T12:54:35.576Z,3.10
2019-05-03T12:56:59.439Z,2.63
2019-05-03T12:59:26.714Z,2.93
2019-05-03T13:02:00.290Z,2.80
2019-05-03T13:04:25.361Z,3.00
2019-05-03T13:06:54.827Z,2.40
2019-05-03T13:09:18.124Z,2.77
2019-05-03T13:11:52.916Z,2.83
2019-05-03T13:14:08.375Z,3.43
2019-05-03T13:16:31.843Z,2.70
2019-05-03T13:18:55.537Z,2.83
2019-05-03T13:21:19.097Z,2.90
2019-05-03T13:23:42.567Z,3.20
2019-05-03T13:26:06.238Z,2.83
2019-05-03T13:28:29.701Z,2.17
2019-05-03T13:30:54.600Z,2.60
2019-05-03T13:33:18.105Z,2.70
2019-05-03T13:35:41.532Z,2.63
2019-05-03T13:38:04.953Z,2.50
2019-05-03T13:40:28.416Z,2.70
2019-05-03T13:42:57.226Z,2.40
2019-05-03T13:45:17.139Z,2.73
2019-05-03T13:47:40.838Z,2.90
2019-05-03T13:50:07.587Z,2.57
2019-05-03T13:52:31.012Z,2.77
2019-05-03T13:54:54.633Z,2.80
2019-05-03T13:57:18.034Z,2.90
2019-05-03T13:59:41.845Z,2.77
2019-05-03T14:02:14.693Z,2.67
2019-05-03T14:04:30.469Z,2.30
2019-05-03T14:06:55.254Z,4.10
2019-05-03T14:09:18.851Z,4.37
2019-05-03T14:11:42.320Z,11.03
2019-05-03T14:14:05.781Z,3.93
2019-05-03T14:16:29.249Z,2.60
2019-05-03T14:18:54.885Z,2.53
2019-05-03T14:21:29.245Z,2.33
2019-05-03T14:24:11.898Z,2.50
2019-05-03T14:26:35.429Z,3.10
2019-05-03T14:28:58.901Z,2.60
2019-05-03T14:31:22.615Z,2.67
2019-05-03T14:33:46.390Z,4.50
2019-05-03T14:36:09.820Z,2.37
2019-05-03T14:38:33.275Z,2.30
2019-05-03T14:40:56.815Z,2.60
2019-05-03T14:43:20.628Z,2.60
2019-05-03T14:45:44.086Z,2.10
2019-05-03T14:48:07.549Z,3.87
2019-05-03T14:50:31.132Z,3.00
2019-05-03T14:52:56.949Z,2.70
2019-05-03T14:55:21.390Z,3.37
2019-05-03T14:57:52.466Z,2.70
2019-05-03T15:00:26.917Z,2.60
2019-05-03T15:02:58.163Z,2.70
2019-05-03T15:05:21.624Z,2.53
2019-05-03T15:07:45.900Z,2.20
2019-05-03T15:10:09.652Z,2.50
2019-05-03T15:12:33.079Z,2.70
2019-05-03T15:14:56.816Z,2.43
2019-05-03T15:17:20.246Z,3.33
2019-05-03T15:19:45.387Z,2.70
2019-05-03T15:22:09.050Z,2.80
2019-05-03T15:24:34.613Z,3.03
2019-05-03T15:26:58.129Z,3.10
2019-05-03T15:29:21.556Z,2.50
2019-05-03T15:31:45.295Z,2.83
2019-05-03T15:34:09.490Z,3.00
2019-05-03T15:36:32.949Z,3.30
2019-05-03T15:38:56.757Z,3.03
2019-05-03T15:41:20.227Z,3.20
2019-05-03T15:43:48.231Z,2.37
2019-05-03T15:46:14.725Z,2.47
2019-05-03T15:48:39.930Z,2.30
2019-05-03T15:51:04.655Z,3.27
2019-05-03T15:53:28.675Z,2.97
2019-05-03T15:55:52.451Z,2.87
2019-05-03T15:58:15.921Z,2.80
2019-05-03T16:00:39.675Z,2.80
2019-05-03T16:03:08.904Z,3.13
2019-05-03T16:05:28.332Z,2.80
2019-05-03T16:07:51.765Z,2.80
2019-05-03T16:10:15.475Z,2.60
2019-05-03T16:12:38.908Z,3.27
2019-05-03T16:15:04.540Z,3.40
2019-05-03T16:17:27.628Z,3.47
2019-05-03T16:19:51.094Z,2.27
2019-05-03T16:22:14.520Z,2.70
2019-05-03T16:24:38.300Z,2.70
2019-05-03T16:27:05.040Z,2.57
2019-05-03T16:29:28.606Z,2.63
2019-05-03T16:31:52.073Z,3.27
2019-05-03T16:34:15.500Z,4.00
2019-05-03T16:36:38.971Z,2.87
2019-05-03T16:39:02.398Z,3.77
2019-05-03T16:41:25.866Z,2.73
2019-05-03T16:43:49.292Z,2.60
2019-05-03T16:46:14.537Z,2.87
2019-05-03T16:48:38.456Z,2.70
2019-05-03T16:51:01.908Z,2.67
2019-05-03T16:53:25.613Z,3.10
2019-05-03T16:55:49.086Z,2.70
2019-05-03T16:58:14.965Z,2.40
2019-05-03T17:00:37.972Z,2.50
2019-05-03T17:03:01.435Z,2.77
2019-05-03T17:05:38.533Z,2.20
2019-05-03T17:08:21.695Z,3.07
2019-05-03T17:10:46.755Z,2.07
2019-05-03T17:13:10.220Z,2.77
2019-05-03T17:15:35.333Z,2.80
2019-05-03T17:17:58.825Z,3.70
2019-05-03T17:20:25.324Z,2.47
2019-05-03T17:22:48.335Z,2.83
2019-05-03T17:25:15.031Z,2.80
2019-05-03T17:27:38.537Z,2.50
2019-05-03T17:30:02.064Z,3.60
2019-05-03T17:32:25.514Z,4.20
2019-05-03T17:34:48.987Z,5.50
2019-05-03T17:37:12.531Z,4.60
2019-05-03T17:39:45.457Z,3.63
2019-05-03T17:42:19.448Z,4.23
2019-05-03T17:44:45.106Z,4.10
2019-05-03T17:47:08.654Z,3.10
2019-05-03T17:49:32.078Z,3.30
2019-05-03T17:51:57.429Z,2.60
2019-05-03T17:54:33.348Z,2.53
2019-05-03T17:57:10.309Z,2.80
2019-05-03T17:59:38.234Z,2.33
2019-05-03T18:02:09.558Z,2.23
2019-05-03T18:04:35.281Z,2.23
2019-05-03T18:07:04.582Z,5.60
2019-05-03T18:09:29.741Z,6.07
2019-05-03T18:11:54.800Z,2.53
2019-05-03T18:14:18.245Z,2.90
2019-05-03T18:16:41.691Z,4.17
2019-05-03T18:19:05.303Z,3.63
2019-05-03T18:21:28.727Z,3.33
2019-05-03T18:23:52.204Z,3.00
2019-05-03T18:26:15.687Z,2.73
2019-05-03T18:28:39.071Z,3.40
2019-05-03T18:31:02.522Z,2.87
2019-05-03T18:33:26.903Z,2.53
2019-05-03T18:35:50.356Z,2.70
2019-05-03T18:38:14.869Z,2.77
2019-05-03T18:40:38.606Z,2.80
2019-05-03T18:43:04.520Z,2.80
2019-05-03T18:45:45.335Z,2.80
2019-05-03T18:48:08.814Z,2.90
2019-05-03T18:50:32.279Z,2.73
2019-05-03T18:52:55.696Z,2.93
2019-05-03T18:55:19.159Z,2.67
2019-05-03T18:57:44.651Z,2.63
2019-05-03T19:00:08.706Z,3.10
2019-05-03T19:02:32.131Z,2.60
2019-05-03T19:04:55.583Z,2.67
2019-05-03T19:07:35.982Z,2.60
2019-05-03T19:10:19.064Z,2.70
2019-05-03T19:12:55.205Z,2.80
2019-05-03T19:15:18.763Z,2.97
2019-05-03T19:17:49.575Z,2.70
2019-05-03T19:20:15.349Z,2.97
2019-05-03T19:22:38.745Z,3.10
2019-05-03T19:25:02.168Z,3.30
2019-05-03T19:27:25.617Z,3.20
2019-05-03T19:29:49.040Z,3.77
2019-05-03T19:32:14.834Z,3.57
2019-05-03T19:34:47.417Z,3.87
2019-05-03T19:37:05.135Z,3.80
2019-05-03T19:39:28.270Z,3.50
2019-05-03T19:41:51.736Z,3.87
2019-05-03T19:44:15.432Z,4.40
2019-05-03T19:46:38.853Z,5.43
2019-05-03T19:49:02.325Z,4.70
2019-05-03T19:51:25.751Z,5.20
2019-05-03T19:53:50.855Z,5.00
2019-05-03T19:56:14.744Z,5.07
2019-05-03T19:58:38.320Z,5.57
2019-05-03T20:01:19.773Z,5.63
2019-05-03T20:03:45.483Z,4.70
2019-05-03T20:06:14.477Z,4.87
2019-05-03T20:08:39.636Z,4.53
2019-05-03T20:11:16.339Z,4.57
2019-05-03T20:13:39.759Z,4.07
2019-05-03T20:16:03.182Z,3.80
2019-05-03T20:18:26.946Z,5.57
2019-05-03T20:20:50.364Z,4.63
2019-05-03T20:23:14.621Z,4.60
2019-05-03T20:25:38.216Z,5.43
2019-05-03T20:28:02.027Z,8.37
2019-05-03T20:30:25.602Z,9.00
2019-05-03T20:32:48.955Z,18.13
2019-05-03T20:35:18.778Z,19.10
2019-05-03T20:37:37.842Z,17.30
2019-05-03T20:40:01.595Z,19.37
2019-05-03T20:42:44.774Z,18.33
2019-05-03T20:45:09.662Z,7.13
2019-05-03T20:47:34.901Z,4.53
2019-05-03T20:50:17.794Z,8.73
2019-05-03T20:52:41.216Z,7.70
2019-05-03T20:55:04.956Z,5.23
2019-05-03T20:57:28.371Z,4.07
2019-05-03T20:59:52.101Z,4.20
2019-05-03T21:02:15.519Z,4.53
2019-05-03T21:04:38.938Z,4.30
2019-05-03T21:07:04.603Z,3.73
2019-05-03T21:09:27.557Z,4.27
2019-05-03T21:11:51.281Z,4.53
2019-05-03T21:14:15.618Z,7.13
2019-05-03T21:16:54.451Z,12.47
2019-05-03T21:19:25.630Z,6.13
2019-05-03T21:21:50.718Z,5.20
2019-05-03T21:24:18.611Z,6.80
2019-05-03T21:26:42.071Z,5.07
2019-05-03T21:29:05.523Z,5.10
2019-05-03T21:31:29.276Z,5.23
2019-05-03T21:33:52.704Z,8.30
2019-05-03T21:36:16.239Z,7.47
2019-05-03T21:38:41.010Z,6.87
2019-05-03T21:41:05.330Z,6.80
2019-05-03T21:43:28.880Z,6.50
2019-05-03T21:46:10.193Z,6.43
2019-05-03T21:48:47.456Z,6.40
2019-05-03T21:51:10.873Z,7.67
2019-05-03T21:53:34.643Z,8.00
2019-05-03T21:55:58.112Z,7.93
2019-05-03T21:58:21.533Z,8.17
2019-05-03T22:00:56.088Z,10.07
2019-05-03T22:03:19.578Z,7.73
2019-05-03T22:05:54.783Z,7.40
2019-05-03T22:08:08.314Z,6.73
2019-05-03T22:10:31.744Z,7.53
2019-05-03T22:12:55.169Z,8.30
2019-05-03T22:15:36.666Z,10.23
2019-05-03T22:18:04.821Z,11.27
2019-05-03T22:20:29.813Z,10.33
2019-05-03T22:22:55.423Z,11.40
2019-05-03T22:25:20.603Z,9.20
2019-05-03T22:27:45.508Z,8.00
2019-05-03T22:30:09.616Z,5.93
2019-05-03T22:32:35.360Z,5.23
2019-05-03T22:34:58.505Z,5.10
2019-05-03T22:37:21.946Z,5.23
2019-05-03T22:39:47.624Z,5.10
2019-05-03T22:42:10.540Z,4.53
2019-05-03T22:44:35.638Z,4.70
2019-05-03T22:46:59.265Z,6.37
2019-05-03T22:49:22.680Z,4.40
2019-05-03T22:51:46.121Z,4.57
2019-05-03T22:54:09.575Z,5.03
2019-05-03T22:56:33.042Z,5.07
2019-05-03T22:58:56.503Z,5.30
2019-05-03T23:01:19.923Z,5.30
2019-05-03T23:03:44.921Z,7.87
2019-05-03T23:06:19.597Z,7.33
2019-05-03T23:08:34.562Z,6.97
2019-05-03T23:10:58.500Z,7.20
2019-05-03T23:13:21.961Z,7.63
2019-05-03T23:15:45.555Z,6.87
2019-05-03T23:18:09.299Z,6.63
2019-05-03T23:20:37.091Z,6.40
2019-05-03T23:23:00.832Z,7.67
2019-05-03T23:25:24.983Z,9.00
2019-05-03T23:27:48.802Z,8.20
2019-05-03T23:30:12.555Z,7.93
2019-05-03T23:32:36.016Z,10.10
2019-05-03T23:34:59.444Z,10.93
2019-05-03T23:37:23.256Z,10.37
2019-05-03T23:39:46.878Z,6.63
2019-05-03T23:42:10.347Z,7.43
2019-05-03T23:44:35.065Z,8.40
2019-05-03T23:47:02.858Z,8.70
2019-05-03T23:49:26.902Z,7.83
2019-05-03T23:51:52.217Z,7.67
2019-05-03T23:54:15.685Z,6.97
2019-05-03T23:56:39.453Z,7.90
2019-05-03T23:59:02.900Z,7.00
